Averill Park, NY (12018)

3:26 PM EDT on July 06, 2015 (GMT -0400)
Taborton Mountain | | Change Station
CLOSE
Current Station
Personal Weather Station
Location: Averill Park, NY
Elevation: 1296 ft
Nearby Weather Stations

Elev 1296 ft 42.61 °N, 73.48 °W | Updated 10 seconds ago

Clear
Clear
78.1 °F
Feels Like 79 °F
N
4.0
Wind Variable Wind from SE
Gusts 10.0 mph

Today
High -- | Low -- °F
--% Chance of Precip.
Yesterday
High -- | Low -- °F
Precip. -- in
5:22 AM 8:34 PM
Waning Gibbous, 73% visible
Pressure 30.13 in
Visibility 10.0 miles
Clouds Few 5500 ft
Few 8500 ft
Heat Index 79 °F
Dew Point 60 °F
Humidity 54%
Rainfall 0.01 in
Snow Depth Not available.
UV 4.0 out of 12
Pollen 5.10 out of 12
Air Quality Not available.
Flu Activity Not available.
METAR KALB 061851Z 18003KT 10SM FEW055 FEW085 29/15 A3013 RMK AO2 SLP203 T02890150

More Conditions Fewer Conditions

Pressure 30.13 in
Visibility 10.0 miles
Clouds Few 5500 ft
Few 8500 ft
Heat Index 79 °F
Dew Point 60 °F
Humidity 54%
Rainfall 0.01 in
Snow Depth Not available.
UV 4.0 out of 12
Pollen 5.10 out of 12
Air Quality Not available.
Flu Activity Not available.
METAR KALB 061851Z 18003KT 10SM FEW055 FEW085 29/15 A3013 RMK AO2 SLP203 T02890150

More Conditions Fewer Conditions

10-Day Weather Forecast

×

Almanac

Astronomy

Jul. 06, 2015 Rise Set
Actual Time
Civil Twilight
Nautical Twilight
Astronomical Twilight
Moon
Length of Visible Light
Length of Day
Tomorrow will be .
, % of the Moon is Illuminated

Today's Extremes

State Highs State Lows

Community

WunderPhotos

Upload Photos

1,835,621 photos uploaded!

WunderBlogs® & News

Nearby

Air Quality

  Air Quality AQ Index Pollutant
Not available.

Snow Depth

Station Depth Elevation

Earthquake Activity

City Distance Mag. Time & Date
Minimum magnitude displayed is 2.5.

Coastal Water Temperatures

Place Temperature

Stations

Nearby Weather Stations

Station Location Temp. Windchill Dew Point Humidity Wind Precip. Elev Updated Type